Terminal Aerodrome Forecast
Issued by NWS

Home | Current Version | Previous Version | Text Only | Print | Product List | Glossary On
Versions: 1 2 3 4 5 6 7 8 9 10 11 12 13 14 15 16 17 18 19 20 21 22 23 24 25
000
FTUS45 KREV 020557 AAA
TAFRNO
TAF AMD
KRNO 020557Z 0206/0306 16009KT P6SM VCTS SCT080CB BKN100 BKN150
     FM020800 VRB04KT P6SM SCT100 BKN150
     FM021900 26007KT P6SM VCSH SCT090 BKN150
     FM022300 30011G19KT P6SM VCTS BKN080CB BKN150
     FM030200 32006KT P6SM SCT080 BKN150=

USA.gov is the U.S. government's official web portal to all federal, state and local government web resources and services.